createdAt,value
2017-10-07T00:00:38.868Z,25.50
2017-10-07T00:01:38.863Z,26.10
2017-10-07T00:02:38.860Z,24.00
2017-10-07T00:03:38.854Z,25.10
2017-10-07T00:04:38.849Z,20.00
2017-10-07T00:05:38.846Z,23.00
2017-10-07T00:06:38.846Z,21.20
2017-10-07T00:07:38.839Z,24.20
2017-10-07T00:08:38.835Z,26.80
2017-10-07T00:09:38.831Z,23.70
2017-10-07T00:10:38.822Z,22.50
2017-10-07T00:11:38.819Z,26.10
2017-10-07T00:12:38.812Z,23.20
2017-10-07T00:13:38.809Z,30.10
2017-10-07T00:14:38.808Z,27.10
2017-10-07T00:15:38.804Z,27.70
2017-10-07T00:16:38.797Z,24.10
2017-10-07T00:17:38.794Z,26.60
2017-10-07T00:18:38.790Z,24.10
2017-10-07T00:19:38.785Z,24.90
2017-10-07T00:20:38.781Z,29.50
2017-10-07T00:21:38.776Z,23.30
2017-10-07T00:22:38.767Z,28.20
2017-10-07T00:23:38.761Z,27.20
2017-10-07T00:24:38.758Z,20.90
2017-10-07T00:25:38.753Z,27.80
2017-10-07T00:26:38.749Z,27.30
2017-10-07T00:27:38.744Z,28.90
2017-10-07T00:28:38.738Z,29.30
2017-10-07T00:29:38.734Z,22.10
2017-10-07T00:30:38.734Z,20.50
2017-10-07T00:31:38.729Z,28.40
2017-10-07T00:32:38.724Z,21.50
2017-10-07T00:33:38.723Z,28.60
2017-10-07T00:34:38.716Z,24.40
2017-10-07T00:35:38.711Z,24.80
2017-10-07T00:36:38.707Z,30.20
2017-10-07T00:37:38.701Z,24.90
2017-10-07T00:38:38.693Z,26.00
2017-10-07T00:39:38.687Z,24.90
2017-10-07T00:40:38.683Z,26.60
2017-10-07T00:41:38.679Z,27.80
2017-10-07T00:42:38.674Z,25.70
2017-10-07T00:43:38.669Z,28.70
2017-10-07T00:44:38.664Z,28.60
2017-10-07T00:45:38.660Z,27.40
2017-10-07T00:46:38.660Z,27.40
2017-10-07T00:47:38.655Z,26.60
2017-10-07T00:48:38.649Z,26.20
2017-10-07T00:49:38.646Z,22.30
2017-10-07T00:50:38.643Z,28.80
2017-10-07T00:51:38.637Z,25.70
2017-10-07T00:52:38.632Z,25.70
2017-10-07T00:53:38.627Z,23.40
2017-10-07T00:54:38.619Z,26.00
2017-10-07T00:55:38.614Z,20.90
2017-10-07T00:56:38.609Z,33.90
2017-10-07T00:57:38.604Z,24.90
2017-10-07T00:58:38.600Z,29.80
2017-10-07T00:59:38.596Z,27.90
2017-10-07T01:00:38.591Z,24.90
2017-10-07T01:01:38.590Z,24.20
2017-10-07T01:02:38.586Z,22.90
2017-10-07T01:03:38.581Z,23.60
2017-10-07T01:04:38.577Z,24.80
2017-10-07T01:05:38.573Z,28.90
2017-10-07T01:06:38.566Z,27.60
2017-10-07T01:07:38.562Z,28.80
2017-10-07T01:08:38.557Z,22.70
2017-10-07T01:09:38.554Z,29.80
2017-10-07T01:10:38.546Z,22.70
2017-10-07T01:11:38.540Z,30.20
2017-10-07T01:12:38.535Z,26.90
2017-10-07T01:13:38.530Z,27.80
2017-10-07T01:14:38.531Z,20.40
2017-10-07T01:15:38.525Z,20.10
2017-10-07T01:16:38.524Z,25.40
2017-10-07T01:17:38.517Z,29.10
2017-10-07T01:18:38.508Z,23.20
2017-10-07T01:19:38.504Z,24.30
2017-10-07T01:20:38.499Z,27.70
2017-10-07T01:21:38.494Z,27.20
2017-10-07T01:22:38.491Z,25.50
2017-10-07T01:23:38.484Z,29.40
2017-10-07T01:24:38.481Z,25.70
2017-10-07T01:25:38.476Z,30.90
2017-10-07T01:26:38.476Z,26.00
2017-10-07T01:27:38.472Z,27.40
2017-10-07T01:28:38.465Z,21.70
2017-10-07T01:29:38.462Z,24.80
2017-10-07T01:30:38.458Z,25.00
2017-10-07T01:31:38.454Z,28.50
2017-10-07T01:32:38.448Z,26.50
2017-10-07T01:33:38.443Z,22.10
2017-10-07T01:34:38.434Z,29.40
2017-10-07T01:35:38.431Z,32.70
2017-10-07T01:36:38.424Z,31.80
2017-10-07T01:37:38.420Z,21.10
2017-10-07T01:38:38.415Z,33.40
2017-10-07T01:39:38.412Z,25.30
2017-10-07T01:40:38.406Z,25.30
2017-10-07T01:41:38.402Z,25.70
2017-10-07T01:42:38.401Z,23.50
2017-10-07T01:43:38.395Z,27.40
2017-10-07T01:44:38.391Z,27.90
2017-10-07T01:45:38.387Z,24.00
2017-10-07T01:46:38.381Z,32.60
2017-10-07T01:47:38.377Z,22.80
2017-10-07T01:48:38.370Z,25.90
2017-10-07T01:49:38.367Z,32.70
2017-10-07T01:50:38.357Z,27.50
2017-10-07T01:51:38.353Z,31.40
2017-10-07T01:52:38.348Z,29.20
2017-10-07T01:53:38.341Z,27.10
2017-10-07T01:54:38.338Z,29.30
2017-10-07T01:55:38.333Z,18.80
2017-10-07T01:56:38.325Z,28.70
2017-10-07T01:57:38.322Z,25.20
2017-10-07T01:58:38.326Z,24.20
2017-10-07T01:59:38.318Z,23.00
2017-10-07T02:00:38.311Z,27.00
2017-10-07T02:01:38.306Z,27.00
2017-10-07T02:02:38.303Z,24.40
2017-10-07T02:03:38.298Z,26.80
2017-10-07T02:04:38.291Z,27.60
2017-10-07T02:05:38.287Z,24.50
2017-10-07T02:06:38.277Z,34.40
2017-10-07T02:07:38.277Z,24.00
2017-10-07T02:08:38.267Z,28.70
2017-10-07T02:09:38.262Z,22.00
2017-10-07T02:10:38.257Z,26.40
2017-10-07T02:11:38.252Z,28.30
2017-10-07T02:12:38.246Z,24.70
2017-10-07T02:13:38.241Z,28.70
2017-10-07T02:14:38.240Z,24.30
2017-10-07T02:15:38.237Z,31.00
2017-10-07T02:16:38.229Z,31.60
2017-10-07T02:17:38.225Z,24.00
2017-10-07T02:18:38.218Z,24.50
2017-10-07T02:19:38.211Z,20.00
2017-10-07T02:20:38.206Z,25.70
2017-10-07T02:21:38.201Z,27.60
2017-10-07T02:22:38.199Z,24.30
2017-10-07T02:23:38.213Z,30.20
2017-10-07T02:24:38.190Z,24.00
2017-10-07T02:25:38.185Z,22.70
2017-10-07T02:26:38.181Z,22.50
2017-10-07T02:27:38.176Z,28.10
2017-10-07T02:28:38.171Z,25.40
2017-10-07T02:29:38.165Z,22.70
2017-10-07T02:30:38.156Z,24.30
2017-10-07T02:31:38.152Z,28.50
2017-10-07T02:32:38.145Z,24.90
2017-10-07T02:33:38.142Z,29.60
2017-10-07T02:34:38.137Z,26.40
2017-10-07T02:35:38.133Z,28.60
2017-10-07T02:36:38.123Z,28.30
2017-10-07T02:37:38.119Z,30.20
2017-10-07T02:38:38.119Z,23.20
2017-10-07T02:39:38.114Z,26.10
2017-10-07T02:40:38.109Z,31.40
2017-10-07T02:41:38.104Z,25.80
2017-10-07T02:42:38.099Z,23.10
2017-10-07T02:43:38.094Z,24.80
2017-10-07T02:44:38.089Z,27.50
2017-10-07T02:45:38.083Z,27.50
2017-10-07T02:46:38.102Z,31.10
2017-10-07T02:47:38.069Z,32.20
2017-10-07T02:48:38.064Z,29.10
2017-10-07T02:49:38.059Z,26.30
2017-10-07T02:50:38.054Z,20.60
2017-10-07T02:51:38.050Z,25.70
2017-10-07T02:52:38.045Z,24.50
2017-10-07T02:53:38.040Z,22.30
2017-10-07T02:54:38.044Z,29.10
2017-10-07T02:55:38.045Z,25.30
2017-10-07T02:56:38.028Z,29.40
2017-10-07T02:57:38.022Z,26.80
2017-10-07T02:58:38.017Z,21.60
2017-10-07T02:59:38.014Z,24.90
2017-10-07T03:00:38.007Z,25.20
2017-10-07T03:01:38.003Z,23.30
2017-10-07T03:02:37.994Z,29.60
2017-10-07T03:03:37.989Z,22.50
2017-10-07T03:04:37.982Z,24.60
2017-10-07T03:05:37.979Z,21.70
2017-10-07T03:06:37.974Z,29.00
2017-10-07T03:07:37.970Z,25.00
2017-10-07T03:08:37.963Z,25.40
2017-10-07T03:09:37.958Z,22.10
2017-10-07T03:10:37.958Z,23.30
2017-10-07T03:11:37.954Z,24.80
2017-10-07T03:12:37.947Z,23.10
2017-10-07T03:13:37.943Z,23.40
2017-10-07T03:14:37.938Z,23.20
2017-10-07T03:15:37.933Z,20.70
2017-10-07T03:16:37.926Z,21.10
2017-10-07T03:17:37.923Z,21.10
2017-10-07T03:18:37.914Z,25.70
2017-10-07T03:19:37.908Z,25.00
2017-10-07T03:20:37.925Z,28.20
2017-10-07T03:21:37.899Z,26.90
2017-10-07T03:22:37.894Z,18.00
2017-10-07T03:23:37.888Z,23.30
2017-10-07T03:24:37.882Z,22.50
2017-10-07T03:25:37.878Z,29.10
2017-10-07T03:26:37.876Z,18.80
2017-10-07T03:27:37.872Z,20.50
2017-10-07T03:28:37.865Z,19.10
2017-10-07T03:29:37.860Z,23.00
2017-10-07T03:30:37.864Z,30.80
2017-10-07T03:31:37.851Z,24.40
2017-10-07T03:32:37.846Z,20.10
2017-10-07T03:33:37.841Z,25.30
2017-10-07T03:34:37.831Z,18.40
2017-10-07T03:35:37.827Z,23.90
2017-10-07T03:36:37.821Z,20.10
2017-10-07T03:37:37.816Z,23.90
2017-10-07T03:38:37.814Z,23.20
2017-10-07T03:39:37.806Z,19.60
2017-10-07T03:40:37.800Z,22.30
2017-10-07T03:41:37.796Z,20.10
2017-10-07T03:42:37.794Z,23.80
2017-10-07T03:43:37.788Z,30.30
2017-10-07T03:44:37.783Z,26.00
2017-10-07T03:45:37.777Z,20.60
2017-10-07T03:46:37.773Z,21.60
2017-10-07T03:47:37.768Z,21.30
2017-10-07T03:48:37.760Z,21.40
2017-10-07T03:49:37.758Z,20.20
2017-10-07T03:50:37.748Z,22.30
2017-10-07T03:51:37.742Z,23.00
2017-10-07T03:52:37.738Z,22.90
2017-10-07T03:53:37.733Z,22.80
2017-10-07T03:54:37.727Z,19.30
2017-10-07T03:55:37.723Z,22.90
2017-10-07T03:56:37.716Z,21.00
2017-10-07T03:57:37.712Z,21.40
2017-10-07T03:58:37.710Z,20.60
2017-10-07T03:59:37.708Z,21.80
2017-10-07T04:00:37.700Z,20.20
2017-10-07T04:01:37.695Z,22.80
2017-10-07T04:02:37.689Z,18.20
2017-10-07T04:03:37.685Z,26.70
2017-10-07T04:04:37.679Z,21.30
2017-10-07T04:05:37.673Z,17.20
2017-10-07T04:06:37.668Z,16.90
2017-10-07T04:07:37.659Z,23.70
2017-10-07T04:08:37.653Z,22.00
2017-10-07T04:09:37.648Z,22.50
2017-10-07T04:10:37.642Z,16.90
2017-10-07T04:11:37.657Z,20.90
2017-10-07T04:12:37.633Z,19.10
2017-10-07T04:13:37.626Z,19.90
2017-10-07T04:14:37.626Z,20.20
2017-10-07T04:15:37.621Z,16.70
2017-10-07T04:16:37.631Z,17.50
2017-10-07T04:17:37.610Z,26.90
2017-10-07T04:18:37.605Z,19.10
2017-10-07T04:19:37.600Z,18.20
2017-10-07T04:20:37.594Z,20.60
2017-10-07T04:21:37.589Z,23.40
2017-10-07T04:22:37.581Z,14.30
2017-10-07T04:23:37.576Z,27.20
2017-10-07T04:24:37.568Z,22.60
2017-10-07T04:25:37.564Z,20.60
2017-10-07T04:26:37.563Z,20.90
2017-10-07T04:27:37.558Z,20.70
2017-10-07T04:28:37.551Z,21.30
2017-10-07T04:29:37.547Z,20.10
2017-10-07T04:30:37.537Z,15.60
2017-10-07T04:31:37.533Z,21.50
2017-10-07T04:32:37.527Z,17.10
2017-10-07T04:33:37.522Z,22.60
2017-10-07T04:34:37.517Z,24.60
2017-10-07T04:35:37.512Z,15.50
2017-10-07T04:36:37.507Z,22.40
2017-10-07T04:37:37.501Z,21.40
2017-10-07T04:38:37.500Z,20.20
2017-10-07T04:39:37.495Z,17.90
2017-10-07T04:40:37.489Z,19.90
2017-10-07T04:41:37.482Z,15.70
2017-10-07T04:42:37.479Z,16.80
2017-10-07T04:43:37.474Z,22.10
2017-10-07T04:44:37.466Z,13.50
2017-10-07T04:45:37.462Z,21.10
2017-10-07T04:46:37.453Z,20.30
2017-10-07T04:47:37.448Z,17.20
2017-10-07T04:48:37.453Z,15.30
2017-10-07T04:49:37.436Z,17.90
2017-10-07T04:50:37.430Z,19.90
2017-10-07T04:51:37.428Z,16.10
2017-10-07T04:52:37.421Z,24.30
2017-10-07T04:53:37.416Z,19.10
2017-10-07T04:54:37.415Z,23.30
2017-10-07T04:55:37.409Z,14.90
2017-10-07T04:56:37.403Z,19.50
2017-10-07T04:57:37.402Z,20.00
2017-10-07T04:58:37.394Z,18.70
2017-10-07T04:59:37.390Z,21.00
2017-10-07T05:00:37.386Z,18.20
2017-10-07T05:01:37.378Z,20.40
2017-10-07T05:02:37.369Z,16.30
2017-10-07T05:03:37.366Z,15.00
2017-10-07T05:04:37.358Z,19.90
2017-10-07T05:05:37.352Z,18.30
2017-10-07T05:06:37.348Z,19.80
2017-10-07T05:07:37.344Z,17.40
2017-10-07T05:08:37.336Z,20.70
2017-10-07T05:09:37.333Z,18.40
2017-10-07T05:10:37.332Z,21.10
2017-10-07T05:11:37.327Z,18.40
2017-10-07T05:12:37.321Z,15.00
2017-10-07T05:13:37.315Z,15.40
2017-10-07T05:14:37.310Z,18.20
2017-10-07T05:15:37.306Z,14.50
2017-10-07T05:16:37.300Z,27.20
2017-10-07T05:17:37.295Z,17.60
2017-10-07T05:18:37.286Z,15.00
2017-10-07T05:19:37.281Z,15.50
2017-10-07T05:20:37.275Z,10.70
2017-10-07T05:21:37.270Z,19.00
2017-10-07T05:22:37.265Z,19.20
2017-10-07T05:23:37.259Z,20.40
2017-10-07T05:24:37.253Z,17.20
2017-10-07T05:25:37.250Z,14.40
2017-10-07T05:26:37.249Z,16.10
2017-10-07T05:27:37.244Z,13.00
2017-10-07T05:28:37.238Z,11.90
2017-10-07T05:29:37.232Z,16.50
2017-10-07T05:30:37.222Z,12.90
2017-10-07T05:31:37.219Z,19.60
2017-10-07T05:32:37.213Z,18.00
2017-10-07T05:33:37.208Z,16.60
2017-10-07T05:34:37.206Z,20.80
2017-10-07T05:35:37.201Z,16.40
2017-10-07T05:36:37.195Z,16.50
2017-10-07T05:37:37.190Z,16.30
2017-10-07T05:38:37.184Z,15.10
2017-10-07T05:39:37.181Z,19.70
2017-10-07T05:40:37.174Z,17.40
2017-10-07T05:41:37.170Z,16.70
2017-10-07T05:42:37.159Z,17.20
2017-10-07T05:43:37.153Z,17.00
2017-10-07T05:44:37.148Z,14.40
2017-10-07T05:45:37.143Z,15.40
2017-10-07T05:46:37.138Z,11.50
2017-10-07T05:47:37.133Z,17.00
2017-10-07T05:48:37.127Z,14.00
2017-10-07T05:49:37.120Z,14.50
2017-10-07T05:50:37.120Z,19.10
2017-10-07T05:51:37.117Z,16.50
2017-10-07T05:52:37.108Z,13.90
2017-10-07T05:53:37.104Z,19.00
2017-10-07T05:54:37.100Z,15.20
2017-10-07T05:55:37.099Z,12.90
2017-10-07T05:56:37.087Z,20.60
2017-10-07T05:57:37.082Z,12.20
2017-10-07T05:58:37.072Z,10.40
2017-10-07T05:59:37.072Z,19.00
2017-10-07T06:00:37.061Z,16.60
2017-10-07T06:01:37.057Z,16.30
2017-10-07T06:02:37.052Z,14.30
2017-10-07T06:03:37.047Z,15.70
2017-10-07T06:04:37.040Z,19.40
2017-10-07T06:05:37.033Z,17.60
2017-10-07T06:06:37.034Z,19.10
2017-10-07T06:07:37.031Z,15.20
2017-10-07T06:08:37.023Z,10.90
2017-10-07T06:09:37.018Z,11.60
2017-10-07T06:10:37.014Z,14.20
2017-10-07T06:11:37.007Z,11.10
2017-10-07T06:12:37.002Z,14.20
2017-10-07T06:13:36.996Z,13.80
2017-10-07T06:14:36.987Z,13.90
2017-10-07T06:15:36.983Z,18.30
2017-10-07T06:16:36.976Z,16.10
2017-10-07T06:17:36.971Z,12.60
2017-10-07T06:18:36.966Z,12.50
2017-10-07T06:19:36.961Z,11.10
2017-10-07T06:20:36.956Z,15.20
2017-10-07T06:21:36.950Z,15.30
2017-10-07T06:22:36.949Z,17.20
2017-10-07T06:23:36.943Z,18.40
2017-10-07T06:24:36.938Z,13.90
2017-10-07T06:25:36.933Z,16.40
2017-10-07T06:26:36.928Z,11.80
2017-10-07T06:27:36.923Z,12.90
2017-10-07T06:28:36.917Z,10.90
2017-10-07T06:29:36.912Z,13.10
2017-10-07T06:30:36.903Z,11.60
2017-10-07T06:31:36.898Z,14.40
2017-10-07T06:32:36.891Z,14.30
2017-10-07T06:33:36.887Z,15.50
2017-10-07T06:34:36.887Z,14.10
2017-10-07T06:35:36.884Z,14.90
2017-10-07T06:36:36.876Z,12.40
2017-10-07T06:37:36.871Z,14.20
2017-10-07T06:38:36.871Z,17.50
2017-10-07T06:39:36.856Z,12.50
2017-10-07T06:40:36.851Z,15.30
2017-10-07T06:41:36.846Z,13.70
2017-10-07T06:42:36.842Z,13.20
2017-10-07T06:43:36.840Z,12.40
2017-10-07T06:44:36.837Z,14.40
2017-10-07T06:45:36.829Z,16.80
2017-10-07T06:46:36.828Z,18.50
2017-10-07T06:47:36.823Z,11.60
2017-10-07T06:48:36.817Z,13.50
2017-10-07T06:49:36.813Z,15.10
2017-10-07T06:50:36.809Z,18.10
2017-10-07T06:51:36.804Z,15.70
2017-10-07T06:52:36.799Z,13.70
2017-10-07T06:53:36.795Z,15.50
2017-10-07T06:54:36.785Z,15.60
2017-10-07T06:55:36.782Z,14.00
2017-10-07T06:56:36.777Z,17.00
2017-10-07T06:57:36.774Z,14.70
2017-10-07T06:58:36.768Z,23.20
2017-10-07T06:59:36.764Z,16.20
2017-10-07T07:00:36.761Z,15.30
2017-10-07T07:01:36.755Z,12.40
2017-10-07T07:02:36.756Z,15.40
2017-10-07T07:03:36.754Z,16.10
2017-10-07T07:04:36.748Z,17.40
2017-10-07T07:05:36.744Z,16.90
2017-10-07T07:06:36.741Z,18.50
2017-10-07T07:07:36.736Z,13.50
2017-10-07T07:08:36.732Z,14.40
2017-10-07T07:09:36.729Z,16.70
2017-10-07T07:10:36.719Z,15.20
2017-10-07T07:11:36.717Z,18.40
2017-10-07T07:12:36.712Z,15.80
2017-10-07T07:13:36.710Z,18.20
2017-10-07T07:14:36.705Z,22.20
2017-10-07T07:15:36.700Z,18.00
2017-10-07T07:16:36.699Z,15.70
2017-10-07T07:17:36.694Z,16.20
2017-10-07T07:18:36.694Z,16.60
2017-10-07T07:19:36.714Z,14.30
2017-10-07T07:20:36.687Z,16.60
2017-10-07T07:21:36.682Z,25.80
2017-10-07T07:22:36.678Z,18.00
2017-10-07T07:23:36.680Z,17.30
2017-10-07T07:24:36.668Z,16.80
2017-10-07T07:25:36.665Z,16.60
2017-10-07T07:26:36.658Z,17.40
2017-10-07T07:27:36.654Z,16.70
2017-10-07T07:28:36.650Z,18.10
2017-10-07T07:29:36.644Z,15.10
2017-10-07T07:30:36.642Z,21.00
2017-10-07T07:31:36.637Z,17.80
2017-10-07T07:32:36.633Z,21.00
2017-10-07T07:33:36.628Z,14.30
2017-10-07T07:34:36.629Z,18.30
2017-10-07T07:35:36.624Z,14.30
2017-10-07T07:36:36.620Z,12.80
2017-10-07T07:37:36.615Z,16.30
2017-10-07T07:38:36.608Z,16.60
2017-10-07T07:39:36.606Z,18.80
2017-10-07T07:40:36.599Z,13.80
2017-10-07T07:41:36.596Z,18.80
2017-10-07T07:42:36.597Z,12.90
2017-10-07T07:43:36.593Z,11.80
2017-10-07T07:44:36.587Z,10.10
2017-10-07T07:45:36.590Z,16.10
2017-10-07T07:46:36.580Z,17.40
2017-10-07T07:47:36.578Z,13.30
2017-10-07T07:48:36.572Z,16.90
2017-10-07T07:49:36.569Z,13.30
2017-10-07T07:50:36.560Z,18.20
2017-10-07T07:51:36.556Z,16.40
2017-10-07T07:52:36.553Z,15.70
2017-10-07T07:53:36.549Z,15.80
2017-10-07T07:54:36.545Z,13.70
2017-10-07T07:55:36.543Z,12.40
2017-10-07T07:56:36.538Z,13.00
2017-10-07T07:57:36.533Z,15.40
2017-10-07T07:58:36.533Z,17.50
2017-10-07T07:59:36.529Z,16.80
2017-10-07T08:00:36.544Z,13.70
2017-10-07T08:01:36.520Z,17.30
2017-10-07T08:02:36.517Z,19.30
2017-10-07T08:03:36.514Z,17.30
2017-10-07T08:04:36.510Z,16.00
2017-10-07T08:05:36.508Z,16.10
2017-10-07T08:06:36.497Z,12.70
2017-10-07T08:07:36.491Z,11.70
2017-10-07T08:08:36.488Z,16.20
2017-10-07T08:09:36.486Z,15.30
2017-10-07T08:10:36.480Z,11.50
2017-10-07T08:11:36.478Z,12.70
2017-10-07T08:12:36.472Z,16.00
2017-10-07T08:13:36.469Z,14.10
2017-10-07T08:14:36.469Z,15.00
2017-10-07T08:15:36.470Z,14.00
2017-10-07T08:16:36.461Z,12.00
2017-10-07T08:17:36.456Z,15.60
2017-10-07T08:18:36.455Z,12.90
2017-10-07T08:19:36.449Z,16.40
2017-10-07T08:20:36.447Z,14.50
2017-10-07T08:21:36.442Z,12.00
2017-10-07T08:22:36.434Z,13.20
2017-10-07T08:23:36.431Z,14.80
2017-10-07T08:24:36.426Z,12.50
2017-10-07T08:25:36.424Z,10.40
2017-10-07T08:26:36.421Z,19.50
2017-10-07T08:27:36.418Z,15.20
2017-10-07T08:28:36.413Z,13.30
2017-10-07T08:29:36.410Z,17.60
2017-10-07T08:30:36.411Z,16.00
2017-10-07T08:31:36.406Z,16.60
2017-10-07T08:32:36.404Z,13.80
2017-10-07T08:33:36.400Z,16.40
2017-10-07T08:34:36.403Z,11.00
2017-10-07T08:35:36.395Z,20.30
2017-10-07T08:36:36.390Z,15.00
2017-10-07T08:37:36.387Z,13.90
2017-10-07T08:38:36.381Z,12.70
2017-10-07T08:39:36.378Z,16.00
2017-10-07T08:40:36.373Z,16.50
2017-10-07T08:41:36.370Z,15.20
2017-10-07T08:42:36.370Z,13.20
2017-10-07T08:43:36.369Z,14.30
2017-10-07T08:44:36.364Z,14.40
2017-10-07T08:45:36.363Z,14.60
2017-10-07T08:46:36.355Z,12.30
2017-10-07T08:47:36.353Z,16.90
2017-10-07T08:48:36.348Z,17.80
2017-10-07T08:49:36.345Z,16.80
2017-10-07T08:50:36.344Z,13.80
2017-10-07T08:51:36.340Z,14.60
2017-10-07T08:52:36.334Z,16.60
2017-10-07T08:53:36.332Z,15.60
2017-10-07T08:54:36.333Z,16.70
2017-10-07T08:55:36.328Z,16.10
2017-10-07T08:56:36.325Z,15.00
2017-10-07T08:57:36.322Z,13.40
2017-10-07T08:58:36.320Z,16.10
2017-10-07T08:59:36.315Z,14.90
2017-10-07T09:00:36.311Z,14.00
2017-10-07T09:01:36.309Z,18.90
2017-10-07T09:02:36.302Z,14.90
2017-10-07T09:03:36.299Z,13.50
2017-10-07T09:04:36.292Z,12.70
2017-10-07T09:05:36.291Z,12.10
2017-10-07T09:06:36.288Z,10.70
2017-10-07T09:07:36.285Z,14.00
2017-10-07T09:08:36.280Z,12.80
2017-10-07T09:09:36.275Z,19.70
2017-10-07T09:10:36.276Z,13.40
2017-10-07T09:11:36.274Z,16.60
2017-10-07T09:12:36.269Z,10.90
2017-10-07T09:13:36.266Z,14.10
2017-10-07T09:14:36.263Z,16.80
2017-10-07T09:15:36.259Z,13.80
2017-10-07T09:16:36.255Z,15.70
2017-10-07T09:17:36.252Z,13.60
2017-10-07T09:18:36.244Z,10.50
2017-10-07T09:19:36.245Z,15.10
2017-10-07T09:20:36.236Z,11.00
2017-10-07T09:21:36.234Z,13.90
2017-10-07T09:22:36.229Z,13.80
2017-10-07T09:23:36.232Z,11.60
2017-10-07T09:24:36.223Z,13.00
2017-10-07T09:25:36.219Z,11.20
2017-10-07T09:26:36.221Z,9.10
2017-10-07T09:27:36.218Z,10.60
2017-10-07T09:28:36.212Z,9.90
2017-10-07T09:29:36.209Z,13.40
2017-10-07T09:30:36.217Z,7.90
2017-10-07T09:31:36.202Z,12.10
2017-10-07T09:32:36.198Z,9.40
2017-10-07T09:33:36.197Z,8.60
2017-10-07T09:34:36.188Z,14.00
2017-10-07T09:35:36.189Z,10.20
2017-10-07T09:36:36.182Z,13.20
2017-10-07T09:37:36.179Z,11.40
2017-10-07T09:38:36.177Z,14.30
2017-10-07T09:39:36.178Z,11.90
2017-10-07T09:40:36.169Z,16.00
2017-10-07T09:41:36.168Z,14.40
2017-10-07T09:42:36.168Z,10.90
2017-10-07T09:43:36.167Z,9.00
2017-10-07T09:44:36.163Z,11.00
2017-10-07T09:45:36.161Z,11.70
2017-10-07T09:46:36.155Z,18.60
2017-10-07T09:47:36.169Z,9.20
2017-10-07T09:48:36.148Z,11.80
2017-10-07T09:49:36.145Z,8.70
2017-10-07T09:50:36.147Z,14.50
2017-10-07T09:51:36.146Z,12.00
2017-10-07T09:52:36.140Z,9.20
2017-10-07T09:53:36.138Z,7.90
2017-10-07T09:54:36.138Z,8.90
2017-10-07T09:55:36.133Z,12.00
2017-10-07T09:56:36.130Z,9.90
2017-10-07T09:57:36.127Z,9.30
2017-10-07T09:58:36.121Z,10.40
2017-10-07T09:59:36.118Z,10.70
2017-10-07T10:00:36.116Z,11.50
2017-10-07T10:01:36.112Z,9.60
2017-10-07T10:02:36.111Z,9.80
2017-10-07T10:03:36.107Z,8.80
2017-10-07T10:04:36.104Z,14.50
2017-10-07T10:05:36.105Z,8.80
2017-10-07T10:06:36.103Z,8.40
2017-10-07T10:07:36.099Z,12.30
2017-10-07T10:08:36.097Z,8.10
2017-10-07T10:09:36.098Z,11.10
2017-10-07T10:10:36.091Z,8.00
2017-10-07T10:11:36.089Z,10.90
2017-10-07T10:12:36.085Z,10.50
2017-10-07T10:13:36.096Z,11.00
2017-10-07T10:14:36.075Z,12.30
2017-10-07T10:15:36.073Z,10.20
2017-10-07T10:16:36.069Z,10.90
2017-10-07T10:17:36.066Z,11.20
2017-10-07T10:18:36.064Z,10.40
2017-10-07T10:19:36.061Z,8.40
2017-10-07T10:20:36.056Z,12.40
2017-10-07T10:21:36.055Z,8.90
2017-10-07T10:22:36.056Z,13.70
2017-10-07T10:23:36.054Z,12.10
2017-10-07T10:24:36.049Z,11.40
2017-10-07T10:25:36.047Z,9.00
2017-10-07T10:26:36.044Z,9.20
2017-10-07T10:27:36.041Z,9.90
2017-10-07T10:28:36.037Z,9.80
2017-10-07T10:29:36.034Z,14.00
2017-10-07T10:30:36.027Z,10.90
2017-10-07T10:31:36.025Z,10.50
2017-10-07T10:32:36.020Z,10.00
2017-10-07T10:33:36.017Z,11.20
2017-10-07T10:34:36.014Z,10.50
2017-10-07T10:35:36.010Z,11.90
2017-10-07T10:36:36.009Z,11.20
2017-10-07T10:37:36.004Z,11.20
2017-10-07T10:38:36.004Z,16.50
2017-10-07T10:39:36.001Z,14.00
2017-10-07T10:40:35.996Z,13.20
2017-10-07T10:41:35.995Z,9.30
2017-10-07T10:42:35.993Z,11.50
2017-10-07T10:43:35.988Z,13.10
2017-10-07T10:44:35.984Z,14.30
2017-10-07T10:45:35.978Z,14.50
2017-10-07T10:46:35.976Z,13.90
2017-10-07T10:47:35.968Z,14.90
2017-10-07T10:48:35.963Z,13.40
2017-10-07T10:49:35.960Z,12.40
2017-10-07T10:50:35.963Z,15.60
2017-10-07T10:51:35.959Z,16.10
2017-10-07T10:52:35.951Z,12.30
2017-10-07T10:53:35.948Z,13.10
2017-10-07T10:54:35.941Z,13.20
2017-10-07T10:55:35.937Z,17.00
2017-10-07T10:56:35.930Z,12.60
2017-10-07T10:57:35.928Z,14.30
2017-10-07T10:58:35.924Z,14.30
2017-10-07T10:59:35.919Z,15.60
2017-10-07T11:00:35.915Z,15.80
2017-10-07T11:01:35.910Z,13.90
2017-10-07T11:02:35.910Z,15.00
2017-10-07T11:03:35.905Z,15.60
2017-10-07T11:04:35.902Z,21.00
2017-10-07T11:05:35.898Z,13.20
2017-10-07T11:06:35.899Z,13.50
2017-10-07T11:07:35.890Z,15.40
2017-10-07T11:08:35.885Z,25.30
2017-10-07T11:09:35.881Z,17.10
2017-10-07T11:10:35.876Z,17.10
2017-10-07T11:11:35.868Z,18.50
2017-10-07T11:12:35.863Z,12.50
2017-10-07T11:13:35.860Z,15.00
2017-10-07T11:14:35.854Z,13.60
2017-10-07T11:15:35.851Z,14.60
2017-10-07T11:16:35.845Z,15.20
2017-10-07T11:17:35.841Z,21.70
2017-10-07T11:18:35.841Z,18.70
2017-10-07T11:19:35.836Z,17.80
2017-10-07T11:20:35.832Z,16.00
2017-10-07T11:21:35.827Z,15.10
2017-10-07T11:22:35.822Z,20.30
2017-10-07T11:23:35.821Z,18.30
2017-10-07T11:24:35.813Z,15.00
2017-10-07T11:25:35.807Z,12.50
2017-10-07T11:26:35.806Z,15.70
2017-10-07T11:27:35.794Z,22.30
2017-10-07T11:28:35.790Z,17.70
2017-10-07T11:29:35.783Z,18.70
2017-10-07T11:30:35.780Z,15.90
2017-10-07T11:31:35.775Z,22.50
2017-10-07T11:32:35.770Z,15.30
2017-10-07T11:33:35.765Z,14.40
2017-10-07T11:34:35.766Z,17.00
2017-10-07T11:35:35.760Z,15.90
2017-10-07T11:36:35.754Z,13.80
2017-10-07T11:37:35.748Z,12.80
2017-10-07T11:38:35.746Z,18.90
2017-10-07T11:39:35.740Z,16.60
2017-10-07T11:40:35.734Z,22.50
2017-10-07T11:41:35.730Z,18.50
2017-10-07T11:42:35.721Z,18.60
2017-10-07T11:43:35.717Z,18.50
2017-10-07T11:44:35.711Z,19.60
2017-10-07T11:45:35.705Z,20.70
2017-10-07T11:46:35.702Z,15.10
2017-10-07T11:47:35.695Z,19.60
2017-10-07T11:48:35.691Z,22.70
2017-10-07T11:49:35.686Z,21.80
2017-10-07T11:50:35.685Z,16.80
2017-10-07T11:51:35.682Z,18.30
2017-10-07T11:52:35.674Z,24.50
2017-10-07T11:53:35.671Z,13.80
2017-10-07T11:54:35.666Z,21.80
2017-10-07T11:55:35.661Z,25.10
2017-10-07T11:56:35.657Z,17.50
2017-10-07T11:57:35.651Z,18.20
2017-10-07T11:58:35.643Z,16.50
2017-10-07T11:59:35.638Z,19.60
2017-10-07T12:00:35.632Z,16.90
2017-10-07T12:01:35.628Z,18.40
2017-10-07T12:02:35.622Z,16.90
2017-10-07T12:03:35.618Z,22.10
2017-10-07T12:04:35.611Z,14.80
2017-10-07T12:05:35.607Z,16.60
2017-10-07T12:06:35.608Z,16.50
2017-10-07T12:07:35.603Z,17.90
2017-10-07T12:08:35.595Z,18.40
2017-10-07T12:09:35.592Z,13.80
2017-10-07T12:10:35.586Z,17.30
2017-10-07T12:11:35.583Z,16.20
2017-10-07T12:12:35.576Z,18.80
2017-10-07T12:13:35.572Z,18.80
2017-10-07T12:14:35.567Z,15.10
2017-10-07T12:15:35.559Z,14.90
2017-10-07T12:16:35.553Z,18.10
2017-10-07T12:17:35.548Z,18.40
2017-10-07T12:18:35.543Z,17.50
2017-10-07T12:19:35.538Z,10.90
2017-10-07T12:20:35.533Z,14.10
2017-10-07T12:21:35.528Z,16.30
2017-10-07T12:22:35.528Z,15.70
2017-10-07T12:23:35.522Z,16.20
2017-10-07T12:24:35.517Z,19.40
2017-10-07T12:25:35.512Z,18.70
2017-10-07T12:26:35.506Z,12.70
2017-10-07T12:27:35.503Z,20.30
2017-10-07T12:28:35.496Z,15.80
2017-10-07T12:29:35.494Z,17.70
2017-10-07T12:30:35.485Z,18.60
2017-10-07T12:31:35.477Z,21.10
2017-10-07T12:32:35.473Z,14.70
2017-10-07T12:33:35.468Z,12.50
2017-10-07T12:34:35.464Z,17.20
2017-10-07T12:35:35.459Z,17.60
2017-10-07T12:36:35.454Z,16.00
2017-10-07T12:37:35.448Z,15.90
2017-10-07T12:38:35.449Z,17.50
2017-10-07T12:39:35.442Z,18.20
2017-10-07T12:40:35.438Z,19.50
2017-10-07T12:41:35.432Z,15.10
2017-10-07T12:42:35.427Z,16.70
2017-10-07T12:43:35.422Z,16.30
2017-10-07T12:44:35.419Z,21.50
2017-10-07T12:45:35.415Z,16.00
2017-10-07T12:46:35.404Z,13.10
2017-10-07T12:47:35.400Z,15.10
2017-10-07T12:48:35.394Z,12.80
2017-10-07T12:49:35.390Z,14.80
2017-10-07T12:50:35.386Z,18.60
2017-10-07T12:51:35.381Z,14.40
2017-10-07T12:52:35.376Z,15.90
2017-10-07T12:53:35.370Z,14.80